Time;durP1;ratioP1;P1;durP2;ratioP2;P2;SDS_P1;SDS_P2;PMS_P1;PMS_P2;Temp;Humidity;BMP_temperature;BMP_pressure;BME280_temperature;BME280_humidity;BME280_pressure;Samples;Min_cycle;Max_cycle;Signal;HPM_P1;HPM_P2
2023/08/03 00:00:59;;;;;;;0.50;0.40;;;15.90;99.90;;;;;;5031570;28;20441;-79
2023/08/03 00:03:26;;;;;;;0.93;0.93;;;15.90;99.90;;;;;;5031891;28;20444;-79
2023/08/03 00:05:53;;;;;;;0.50;0.40;;;15.80;99.90;;;;;;5032720;28;20523;-80
2023/08/03 00:08:20;;;;;;;0.50;0.50;;;15.80;99.90;;;;;;5028733;28;20475;-80
2023/08/03 00:10:48;;;;;;;1.17;0.77;;;15.80;99.90;;;;;;5027566;28;20456;-80
2023/08/03 00:13:15;;;;;;;0.50;0.40;;;15.80;99.90;;;;;;5029122;28;20535;-79
2023/08/03 00:15:41;;;;;;;0.50;0.30;;;15.70;99.90;;;;;;5030903;28;20548;-80
2023/08/03 00:18:08;;;;;;;0.60;0.40;;;15.70;99.90;;;;;;5029937;28;20464;-80
2023/08/03 00:20:35;;;;;;;0.50;0.40;;;15.70;99.90;;;;;;5029088;28;20536;-80
2023/08/03 00:23:02;;;;;;;0.50;0.43;;;15.70;99.90;;;;;;5027843;28;20469;-78
2023/08/03 00:25:30;;;;;;;0.50;0.40;;;15.70;99.90;;;;;;5027871;28;20460;-80
2023/08/03 00:27:58;;;;;;;0.50;0.37;;;15.70;99.90;;;;;;5028024;28;20481;-79
2023/08/03 00:30:25;;;;;;;0.50;0.40;;;15.70;99.90;;;;;;5030921;28;20454;-80
2023/08/03 00:32:52;;;;;;;0.50;0.37;;;15.70;99.90;;;;;;5030431;28;20444;-79
2023/08/03 00:35:19;;;;;;;0.50;0.40;;;15.70;99.90;;;;;;5027725;28;20444;-79
2023/08/03 00:37:45;;;;;;;0.50;0.50;;;15.70;99.90;;;;;;5026233;28;20461;-79
2023/08/03 00:40:12;;;;;;;0.50;0.40;;;15.70;99.90;;;;;;5027036;28;20441;-79
2023/08/03 00:42:39;;;;;;;0.77;0.77;;;15.60;99.90;;;;;;5030383;28;20437;-80
2023/08/03 00:45:11;;;;;;;0.97;0.50;;;15.60;99.90;;;;;;5028899;28;20441;-77
2023/08/03 00:47:38;;;;;;;0.60;0.60;;;15.60;99.90;;;;;;5025042;28;20481;-79
2023/08/03 00:50:06;;;;;;;0.60;0.60;;;15.60;99.90;;;;;;5025193;28;20456;-79
2023/08/03 00:52:33;;;;;;;2.97;0.60;;;15.60;99.90;;;;;;5017171;28;20449;-79
2023/08/03 00:55:00;;;;;;;0.53;0.53;;;15.60;99.90;;;;;;5024570;28;20445;-79
2023/08/03 00:57:28;;;;;;;0.50;0.50;;;15.60;99.90;;;;;;5027786;28;20466;-78
2023/08/03 00:59:54;;;;;;;0.80;0.40;;;15.60;99.90;;;;;;5028432;28;20445;-78
2023/08/03 01:02:23;;;;;;;0.50;0.40;;;15.60;99.90;;;;;;5026704;28;20447;-79
2023/08/03 01:04:50;;;;;;;0.83;0.83;;;15.60;99.90;;;;;;5024955;28;20449;-76
2023/08/03 01:07:17;;;;;;;0.60;0.50;;;15.70;99.90;;;;;;5025646;28;20495;-80
2023/08/03 01:09:43;;;;;;;0.50;0.40;;;15.70;99.90;;;;;;5028074;28;20539;-77
2023/08/03 01:12:10;;;;;;;0.50;0.30;;;15.70;99.90;;;;;;5028263;28;20456;-78
2023/08/03 01:14:37;;;;;;;0.50;0.40;;;15.70;99.90;;;;;;5024417;28;20440;-79
2023/08/03 01:17:04;;;;;;;0.60;0.50;;;15.70;99.90;;;;;;5024318;28;20461;-78
2023/08/03 01:19:32;;;;;;;0.50;0.40;;;15.60;99.90;;;;;;5026870;28;20810;-79
2023/08/03 01:22:00;;;;;;;0.50;0.40;;;15.60;99.90;;;;;;5026738;28;20444;-79
2023/08/03 01:24:29;;;;;;;0.50;0.40;;;15.60;99.90;;;;;;5024143;28;20445;-79
2023/08/03 01:26:57;;;;;;;0.60;0.50;;;15.60;99.90;;;;;;5023690;28;20484;-79
2023/08/03 01:29:23;;;;;;;0.90;0.90;;;15.60;99.90;;;;;;5024813;28;20454;-80
2023/08/03 01:31:56;;;;;;;0.70;0.60;;;15.50;99.90;;;;;;5024805;28;20442;-79
2023/08/03 01:34:23;;;;;;;0.50;0.50;;;15.50;99.90;;;;;;5025461;28;20973;-79
2023/08/03 01:36:50;;;;;;;0.50;0.50;;;15.60;99.90;;;;;;5025937;28;20455;-79
2023/08/03 01:39:17;;;;;;;0.70;0.70;;;15.60;99.90;;;;;;5025997;28;20444;-78
2023/08/03 01:41:45;;;;;;;1.60;0.70;;;15.60;99.90;;;;;;5023345;28;20441;-78
2023/08/03 01:44:25;;;;;;;0.50;0.40;;;15.60;99.90;;;;;;5023367;28;20446;-77
2023/08/03 01:46:53;;;;;;;0.50;0.40;;;15.60;99.90;;;;;;5026970;28;20508;-79
2023/08/03 01:49:19;;;;;;;1.00;0.87;;;15.60;99.90;;;;;;5025731;28;20448;-79
2023/08/03 01:51:46;;;;;;;2.30;1.13;;;15.60;99.90;;;;;;5023904;28;20943;-77
2023/08/03 01:54:15;;;;;;;0.50;0.40;;;15.60;99.90;;;;;;5023860;28;20445;-77
2023/08/03 01:56:42;;;;;;;0.50;0.50;;;15.60;99.90;;;;;;5027611;28;20445;-79
2023/08/03 01:59:10;;;;;;;0.50;0.30;;;15.60;99.90;;;;;;5026903;28;20854;-79
2023/08/03 02:01:37;;;;;;;0.50;0.47;;;15.70;99.90;;;;;;5024231;28;20446;-79
2023/08/03 02:04:04;;;;;;;1.60;0.90;;;15.70;99.90;;;;;;5023378;28;20441;-78
2023/08/03 02:06:31;;;;;;;0.67;0.63;;;15.70;99.90;;;;;;5025721;28;20470;-80
2023/08/03 02:08:57;;;;;;;0.50;0.40;;;15.70;99.90;;;;;;5028772;28;20928;-79
2023/08/03 02:11:25;;;;;;;0.50;0.40;;;15.80;99.90;;;;;;5026932;28;20451;-80
2023/08/03 02:13:52;;;;;;;0.50;0.40;;;15.80;99.90;;;;;;5025952;28;20446;-79
2023/08/03 02:16:20;;;;;;;1.27;1.17;;;15.80;99.90;;;;;;5026259;28;20952;-80
2023/08/03 02:18:46;;;;;;;0.50;0.40;;;15.80;99.90;;;;;;5029753;28;20849;-79
2023/08/03 02:21:13;;;;;;;1.07;0.77;;;15.80;99.90;;;;;;5028794;28;20952;-80
2023/08/03 02:23:40;;;;;;;0.67;0.57;;;15.80;99.90;;;;;;5029492;28;20445;-79
2023/08/03 02:26:08;;;;;;;0.90;0.90;;;15.90;99.90;;;;;;5029676;28;20508;-80
2023/08/03 02:28:35;;;;;;;0.50;0.40;;;15.90;99.90;;;;;;5026479;28;20480;-80
2023/08/03 02:31:02;;;;;;;0.60;0.40;;;15.90;99.90;;;;;;5027906;28;20446;-80
2023/08/03 02:33:30;;;;;;;0.50;0.40;;;16.00;99.90;;;;;;5028643;28;20472;-80
2023/08/03 02:35:56;;;;;;;0.50;0.40;;;16.00;99.90;;;;;;5030947;28;20444;-80
2023/08/03 02:38:24;;;;;;;0.60;0.60;;;16.00;99.90;;;;;;5029634;28;20467;-79
2023/08/03 02:40:51;;;;;;;0.50;0.40;;;16.00;99.90;;;;;;5026283;28;20942;-78
2023/08/03 02:43:18;;;;;;;0.50;0.40;;;16.00;99.90;;;;;;5026136;28;20938;-78
2023/08/03 02:45:45;;;;;;;0.57;0.47;;;16.00;99.90;;;;;;5028437;28;20929;-79
2023/08/03 02:48:11;;;;;;;10.03;1.23;;;16.00;99.90;;;;;;5031219;28;20489;-79
2023/08/03 02:50:39;;;;;;;0.80;0.80;;;16.00;99.90;;;;;;5028911;28;20976;-79
2023/08/03 02:53:06;;;;;;;0.60;0.60;;;15.90;99.90;;;;;;5028545;28;20450;-78
2023/08/03 02:55:33;;;;;;;0.73;0.70;;;15.90;99.90;;;;;;5030364;28;20445;-80
2023/08/03 02:58:00;;;;;;;1.37;0.53;;;15.80;99.90;;;;;;5032717;28;20460;-80
2023/08/03 03:00:26;;;;;;;0.80;0.80;;;15.80;99.90;;;;;;5032718;28;20809;-79
2023/08/03 03:02:53;;;;;;;0.60;0.60;;;15.80;99.90;;;;;;5030101;28;20438;-79
2023/08/03 03:05:20;;;;;;;0.80;0.80;;;15.80;99.90;;;;;;5029335;28;20452;-78
2023/08/03 03:07:48;;;;;;;0.50;0.40;;;15.80;99.90;;;;;;5031897;28;20488;-79
2023/08/03 03:10:15;;;;;;;0.50;0.40;;;15.70;99.90;;;;;;5032939;28;20440;-80
2023/08/03 03:12:41;;;;;;;0.50;0.30;;;15.70;99.90;;;;;;5029668;28;20438;-79
2023/08/03 03:15:09;;;;;;;2.60;0.50;;;15.70;99.90;;;;;;5028702;28;20442;-79
2023/08/03 03:17:38;;;;;;;0.50;0.40;;;15.70;99.90;;;;;;5031696;28;20457;-80
2023/08/03 03:20:06;;;;;;;0.50;0.40;;;15.70;99.90;;;;;;5032586;28;20501;-80
2023/08/03 03:22:32;;;;;;;1.00;0.80;;;15.70;99.90;;;;;;5029822;28;20540;-79
2023/08/03 03:25:01;;;;;;;1.40;0.70;;;15.70;99.90;;;;;;5027779;28;20451;-79
2023/08/03 03:27:27;;;;;;;0.50;0.40;;;15.80;99.90;;;;;;5028877;28;20485;-79
2023/08/03 03:29:54;;;;;;;0.50;0.40;;;15.80;99.90;;;;;;5031735;28;20523;-79
2023/08/03 03:32:21;;;;;;;0.50;0.40;;;15.80;99.90;;;;;;5032060;28;20445;-80
2023/08/03 03:34:48;;;;;;;0.50;0.40;;;15.80;99.90;;;;;;5019837;28;20545;-79
2023/08/03 03:37:15;;;;;;;0.50;0.30;;;15.80;99.90;;;;;;5028419;28;20457;-80
2023/08/03 03:39:42;;;;;;;0.50;0.40;;;15.80;99.90;;;;;;5031026;28;20447;-79
2023/08/03 03:42:10;;;;;;;0.50;0.40;;;15.80;99.90;;;;;;5046650;22;20505;-80
2023/08/03 03:44:37;;;;;;;0.60;0.60;;;15.80;99.90;;;;;;5031957;28;20787;-80
2023/08/03 03:47:04;;;;;;;1.43;0.67;;;15.80;99.90;;;;;;5044090;28;20480;-81
2023/08/03 03:49:31;;;;;;;2.43;0.70;;;15.90;99.90;;;;;;5053196;28;20440;-80
2023/08/03 03:51:58;;;;;;;0.63;0.63;;;15.90;99.90;;;;;;5043580;28;20479;-81
2023/08/03 03:54:24;;;;;;;0.50;0.50;;;15.90;99.90;;;;;;5043056;28;20448;-80
2023/08/03 03:56:51;;;;;;;0.83;0.80;;;15.90;99.90;;;;;;5035145;28;20445;-80
2023/08/03 03:59:19;;;;;;;0.70;0.50;;;15.90;99.90;;;;;;5042216;28;20446;-81
2023/08/03 04:01:46;;;;;;;0.97;0.57;;;15.90;99.90;;;;;;5046453;28;20463;-82
2023/08/03 04:04:13;;;;;;;0.80;0.60;;;15.90;99.90;;;;;;5040370;28;20476;-80
2023/08/03 04:06:39;;;;;;;0.53;0.37;;;15.90;99.90;;;;;;5046371;28;20445;-80
2023/08/03 04:09:06;;;;;;;0.60;0.60;;;16.00;99.90;;;;;;5050505;28;20482;-81
2023/08/03 04:11:33;;;;;;;0.60;0.50;;;16.00;99.90;;;;;;5044739;28;20499;-82
2023/08/03 04:14:00;;;;;;;0.50;0.40;;;16.00;99.90;;;;;;5045039;28;20451;-81
2023/08/03 04:16:28;;;;;;;0.73;0.70;;;16.00;99.90;;;;;;5037705;28;20466;-82
2023/08/03 04:18:55;;;;;;;0.50;0.37;;;16.10;99.90;;;;;;5043132;28;21004;-83
2023/08/03 04:21:22;;;;;;;0.50;0.50;;;16.10;99.90;;;;;;5043454;28;20522;-82
2023/08/03 04:23:48;;;;;;;2.00;0.50;;;16.10;99.90;;;;;;5052578;28;20519;-82
2023/08/03 04:26:15;;;;;;;0.50;0.40;;;16.10;99.90;;;;;;5051284;28;20955;-81
2023/08/03 04:28:42;;;;;;;0.50;0.40;;;16.20;99.90;;;;;;5039115;28;20568;-81
2023/08/03 04:31:09;;;;;;;1.00;0.50;;;16.20;99.90;;;;;;5044227;28;20465;-81
2023/08/03 04:33:37;;;;;;;0.70;0.50;;;16.20;99.90;;;;;;5044474;28;20444;-82
2023/08/03 04:36:05;;;;;;;0.50;0.50;;;16.30;99.90;;;;;;5044776;28;20441;-82
2023/08/03 04:38:31;;;;;;;0.60;0.60;;;16.30;99.90;;;;;;5044488;28;20445;-82
2023/08/03 04:41:00;;;;;;;0.50;0.50;;;16.30;99.90;;;;;;5044672;28;20467;-83
2023/08/03 04:43:27;;;;;;;1.10;1.00;;;16.30;99.90;;;;;;5044396;28;20472;-81
2023/08/03 04:45:53;;;;;;;0.50;0.50;;;16.40;99.90;;;;;;5035677;28;20452;-83
2023/08/03 04:48:20;;;;;;;0.50;0.40;;;16.40;99.90;;;;;;5051508;28;20498;-83
2023/08/03 04:50:48;;;;;;;0.50;0.40;;;16.40;99.90;;;;;;5044078;28;21064;-84
2023/08/03 04:53:15;;;;;;;3.17;0.50;;;16.40;99.90;;;;;;5044158;28;20455;-83
2023/08/03 04:55:43;;;;;;;0.80;0.67;;;16.30;99.90;;;;;;5044537;28;20444;-83
2023/08/03 04:58:10;;;;;;;30.03;1.50;;;16.20;99.90;;;;;;5034617;28;20475;-82
2023/08/03 05:00:37;;;;;;;0.57;0.47;;;16.20;99.90;;;;;;5043115;28;20533;-80
2023/08/03 05:03:04;;;;;;;2.30;0.87;;;16.20;99.90;;;;;;5046664;28;20452;-82
2023/08/03 05:05:30;;;;;;;1.10;0.60;;;16.10;99.90;;;;;;5046239;28;20495;-77
2023/08/03 05:07:58;;;;;;;0.60;0.40;;;16.10;99.90;;;;;;5037688;28;20483;-79
2023/08/03 05:10:25;;;;;;;1.47;1.37;;;16.10;99.90;;;;;;5045232;28;20440;-78
2023/08/03 05:12:52;;;;;;;0.67;0.67;;;16.00;99.90;;;;;;5042092;28;20441;-81
2023/08/03 05:15:19;;;;;;;0.50;0.40;;;16.00;99.90;;;;;;5041877;28;20431;-79
2023/08/03 05:17:48;;;;;;;0.50;0.40;;;15.90;99.90;;;;;;5041377;28;20439;-80
2023/08/03 05:20:15;;;;;;;0.50;0.40;;;15.90;99.90;;;;;;5041761;28;21004;-82
2023/08/03 05:22:42;;;;;;;0.50;0.40;;;15.80;99.90;;;;;;5042391;28;20986;-80
2023/08/03 05:25:10;;;;;;;0.50;0.40;;;15.80;99.90;;;;;;5044576;28;20451;-80
2023/08/03 05:27:37;;;;;;;0.50;0.40;;;15.80;99.90;;;;;;5044071;28;20480;-80
2023/08/03 05:30:04;;;;;;;0.50;0.40;;;15.80;99.90;;;;;;5041377;28;20444;-79
2023/08/03 05:32:31;;;;;;;0.90;0.70;;;15.80;99.90;;;;;;5040997;28;20464;-82
2023/08/03 05:34:58;;;;;;;0.60;0.60;;;15.80;99.90;;;;;;5032983;28;20439;-81
2023/08/03 05:37:25;;;;;;;0.60;0.40;;;15.90;99.90;;;;;;5040555;28;20444;-82
2023/08/03 05:39:51;;;;;;;0.50;0.40;;;15.90;99.90;;;;;;5042183;28;20567;-82
2023/08/03 05:42:20;;;;;;;0.60;0.60;;;16.00;99.90;;;;;;5041446;28;20832;-81
2023/08/03 05:44:46;;;;;;;0.50;0.40;;;16.00;99.90;;;;;;5043112;28;20459;-80
2023/08/03 05:47:17;;;;;;;0.50;0.40;;;16.00;99.90;;;;;;5044637;28;20543;-82
2023/08/03 05:49:44;;;;;;;0.50;0.50;;;16.00;99.90;;;;;;5043591;28;20483;-81
2023/08/03 05:52:11;;;;;;;0.60;0.50;;;16.00;99.90;;;;;;5043172;28;20456;-84
2023/08/03 05:54:38;;;;;;;1.00;0.60;;;16.10;99.90;;;;;;5042455;28;20441;-83
2023/08/03 05:57:06;;;;;;;0.50;0.40;;;16.20;99.90;;;;;;5046697;28;20439;-82
2023/08/03 05:59:37;;;;;;;0.73;0.73;;;16.30;99.90;;;;;;5045149;28;20437;-84
2023/08/03 06:02:19;;;;;;;0.50;0.43;;;16.30;99.90;;;;;;5029702;28;21184;-82
2023/08/03 06:04:46;;;;;;;0.60;0.50;;;16.30;99.90;;;;;;5043381;28;20968;-82
2023/08/03 06:07:13;;;;;;;0.50;0.40;;;16.30;99.90;;;;;;5042717;28;20441;-82
2023/08/03 06:09:40;;;;;;;1.33;1.23;;;16.20;99.90;;;;;;5043428;28;20535;-82
2023/08/03 06:12:14;;;;;;;5.70;0.83;;;16.20;99.90;;;;;;5050525;28;20543;-87
2023/08/03 06:14:42;;;;;;;0.50;0.40;;;16.10;99.90;;;;;;5048864;28;20507;-82
2023/08/03 06:17:09;;;;;;;0.50;0.40;;;15.90;99.90;;;;;;5052502;28;20961;-82
2023/08/03 06:19:37;;;;;;;1.67;0.97;;;15.90;99.90;;;;;;5045050;28;20433;-85
2023/08/03 06:22:05;;;;;;;0.73;0.73;;;15.80;99.90;;;;;;5032262;28;20467;-82
2023/08/03 06:24:32;;;;;;;0.50;0.50;;;15.70;99.90;;;;;;5057939;28;20424;-83
2023/08/03 06:26:59;;;;;;;0.50;0.40;;;15.60;99.90;;;;;;5074890;28;20491;-85
2023/08/03 06:29:27;;;;;;;0.50;0.40;;;15.60;99.90;;;;;;5053982;28;20503;-80
2023/08/03 06:31:55;;;;;;;0.50;0.50;;;15.60;99.90;;;;;;5056312;28;20533;-85
2023/08/03 06:34:22;;;;;;;0.80;0.80;;;15.60;99.90;;;;;;5055965;28;20531;-85
2023/08/03 06:36:49;;;;;;;0.50;0.50;;;15.50;99.90;;;;;;5054813;28;20467;-85
2023/08/03 06:39:16;;;;;;;0.50;0.40;;;15.50;99.90;;;;;;5055012;28;20441;-84
2023/08/03 06:41:42;;;;;;;1.07;0.97;;;15.50;99.90;;;;;;5062095;28;20459;-85
2023/08/03 06:44:09;;;;;;;0.60;0.50;;;15.50;99.90;;;;;;5058257;28;20446;-85
2023/08/03 06:46:36;;;;;;;0.50;0.30;;;15.50;99.90;;;;;;5054010;28;20506;-85
2023/08/03 06:49:04;;;;;;;0.50;0.40;;;15.50;99.90;;;;;;5044769;28;20510;-82
2023/08/03 06:51:32;;;;;;;1.60;0.97;;;15.50;99.90;;;;;;5040755;28;20479;-83
2023/08/03 06:54:00;;;;;;;1.13;1.13;;;15.50;99.90;;;;;;5050920;28;20825;-82
2023/08/03 06:56:27;;;;;;;1.10;1.00;;;15.50;99.90;;;;;;5052229;28;20448;-83
2023/08/03 06:58:54;;;;;;;0.60;0.57;;;15.50;99.90;;;;;;5052626;28;20440;-84
2023/08/03 07:01:20;;;;;;;0.60;0.60;;;15.50;99.90;;;;;;5041148;28;20459;-83
2023/08/03 07:03:47;;;;;;;0.60;0.50;;;15.50;99.90;;;;;;5046390;28;20451;-84
2023/08/03 07:06:15;;;;;;;0.50;0.40;;;15.60;99.90;;;;;;5042847;28;20965;-82
2023/08/03 07:08:42;;;;;;;1.47;1.37;;;15.60;99.90;;;;;;5052160;28;20483;-83
2023/08/03 07:11:09;;;;;;;0.50;0.40;;;15.60;99.90;;;;;;5048217;28;20480;-83
2023/08/03 07:13:36;;;;;;;0.60;0.50;;;15.60;99.90;;;;;;5050855;28;20444;-83
2023/08/03 07:16:09;;;;;;;1.40;1.30;;;15.60;99.90;;;;;;5038676;28;20539;-83
2023/08/03 07:18:36;;;;;;;0.57;0.50;;;15.60;99.90;;;;;;5056571;28;20523;-83
2023/08/03 07:21:06;;;;;;;0.40;0.40;;;15.60;99.90;;;;;;5044826;28;20479;-83
2023/08/03 07:23:35;;;;;;;0.47;0.43;;;15.70;99.90;;;;;;5044378;28;20940;-81
2023/08/03 07:26:01;;;;;;;0.40;0.30;;;15.70;99.90;;;;;;5045966;28;21336;-83
2023/08/03 07:28:28;;;;;;;0.50;0.33;;;15.70;99.90;;;;;;5050734;28;20494;-86
2023/08/03 07:30:55;;;;;;;0.53;0.53;;;15.80;99.90;;;;;;5047245;28;20833;-84
2023/08/03 07:33:22;;;;;;;1.67;0.83;;;15.80;99.90;;;;;;5034432;28;20440;-84
2023/08/03 07:35:48;;;;;;;0.50;0.50;;;15.80;99.90;;;;;;5045426;28;20485;-84
2023/08/03 07:38:15;;;;;;;0.50;0.40;;;15.80;99.90;;;;;;5049638;28;20436;-84
2023/08/03 07:40:43;;;;;;;0.80;0.40;;;15.80;99.90;;;;;;5041692;28;20452;-84
2023/08/03 07:43:10;;;;;;;0.50;0.40;;;15.90;99.90;;;;;;5045129;28;20448;-84
2023/08/03 07:45:39;;;;;;;0.40;0.40;;;15.90;99.90;;;;;;5046822;28;20454;-82
2023/08/03 07:48:06;;;;;;;0.60;0.60;;;15.90;99.90;;;;;;5048794;28;20444;-82
2023/08/03 07:50:32;;;;;;;2.70;0.70;;;15.90;99.90;;;;;;5057884;28;20459;-82
2023/08/03 07:52:59;;;;;;;0.70;0.50;;;16.00;99.90;;;;;;5058618;28;20440;-83
2023/08/03 07:55:26;;;;;;;0.50;0.50;;;16.00;99.90;;;;;;5051726;28;20444;-82
2023/08/03 07:57:54;;;;;;;0.50;0.40;;;16.10;99.90;;;;;;5048616;28;20538;-82
2023/08/03 08:00:21;;;;;;;1.90;1.03;;;16.30;99.90;;;;;;5051291;28;20455;-81
2023/08/03 08:02:48;;;;;;;1.40;1.13;;;16.40;99.90;;;;;;5057206;28;20468;-82
2023/08/03 08:05:15;;;;;;;0.57;0.57;;;16.50;99.90;;;;;;5048132;28;20449;-81
2023/08/03 08:07:42;;;;;;;0.50;0.50;;;16.60;99.90;;;;;;5048483;28;20455;-81
2023/08/03 08:10:11;;;;;;;2.57;0.83;;;16.70;99.90;;;;;;5048870;28;20488;-82
2023/08/03 08:12:37;;;;;;;1.80;1.70;;;16.70;99.90;;;;;;5043016;28;20464;-81
2023/08/03 08:15:06;;;;;;;0.50;0.40;;;16.70;99.90;;;;;;5038994;28;20445;-82
2023/08/03 08:17:33;;;;;;;0.70;0.70;;;16.80;99.90;;;;;;5049330;28;20452;-82
2023/08/03 08:20:00;;;;;;;1.10;0.80;;;16.70;99.90;;;;;;5043821;28;20912;-81
2023/08/03 08:22:27;;;;;;;0.60;0.60;;;16.80;99.90;;;;;;5050021;28;20974;-83
2023/08/03 08:24:54;;;;;;;1.00;0.70;;;16.80;99.90;;;;;;5037629;28;20535;-82
2023/08/03 08:27:20;;;;;;;9.57;0.83;;;16.80;99.90;;;;;;5050296;28;20456;-81
2023/08/03 08:29:48;;;;;;;2.73;2.53;;;16.90;99.90;;;;;;5055121;28;20918;-84
2023/08/03 08:32:16;;;;;;;0.67;0.50;;;16.90;99.90;;;;;;5057683;28;20464;-81
2023/08/03 08:34:43;;;;;;;0.50;0.40;;;17.00;99.90;;;;;;5052238;28;20444;-82
2023/08/03 08:37:09;;;;;;;0.50;0.40;;;17.00;99.90;;;;;;5047225;28;20441;-85
2023/08/03 08:39:36;;;;;;;0.60;0.57;;;17.00;99.90;;;;;;5047402;28;20437;-84
2023/08/03 08:42:11;;;;;;;0.50;0.40;;;16.90;99.90;;;;;;5047791;28;20493;-82
2023/08/03 08:44:38;;;;;;;4.10;1.43;;;17.00;99.90;;;;;;5049629;28;20836;-82
2023/08/03 08:47:06;;;;;;;0.60;0.60;;;17.00;99.90;;;;;;5041105;28;20881;-83
2023/08/03 08:49:34;;;;;;;0.50;0.40;;;16.90;99.90;;;;;;5042977;28;20917;-83
2023/08/03 08:52:02;;;;;;;0.50;0.40;;;16.90;99.90;;;;;;5046044;28;20468;-82
2023/08/03 08:54:31;;;;;;;0.50;0.50;;;16.90;99.90;;;;;;5046011;28;20877;-81
2023/08/03 08:56:58;;;;;;;0.50;0.30;;;17.00;99.90;;;;;;5044711;28;20498;-82
2023/08/03 08:59:26;;;;;;;0.50;0.37;;;17.10;99.90;;;;;;5039275;28;20440;-81
2023/08/03 09:01:54;;;;;;;0.60;0.60;;;17.10;99.90;;;;;;5045550;28;20472;-82
2023/08/03 09:04:29;;;;;;;0.50;0.40;;;17.10;99.90;;;;;;5050302;28;20437;-81
2023/08/03 09:06:57;;;;;;;1.00;0.50;;;17.20;99.90;;;;;;5043473;28;20447;-81
2023/08/03 09:09:28;;;;;;;0.50;0.40;;;17.40;99.90;;;;;;5041374;28;20476;-81
2023/08/03 09:11:56;;;;;;;0.50;0.30;;;17.50;99.90;;;;;;5042698;28;20822;-82
2023/08/03 09:14:23;;;;;;;0.50;0.40;;;17.60;99.90;;;;;;5046029;28;20439;-81
2023/08/03 09:16:50;;;;;;;0.80;0.80;;;17.80;99.90;;;;;;5038118;28;20448;-81
2023/08/03 09:19:36;;;;;;;0.50;0.40;;;17.80;99.90;;;;;;5041927;28;20450;-83
2023/08/03 09:22:05;;;;;;;0.70;0.70;;;17.70;99.90;;;;;;5043244;28;20457;-81
2023/08/03 09:24:31;;;;;;;0.60;0.60;;;17.60;99.90;;;;;;5045172;28;20442;-80
2023/08/03 09:26:58;;;;;;;0.70;0.40;;;17.50;99.90;;;;;;5044862;28;20526;-82
2023/08/03 09:29:29;;;;;;;0.50;0.40;;;17.50;99.90;;;;;;5046399;28;20486;-83
2023/08/03 09:32:04;;;;;;;0.50;0.40;;;17.40;99.90;;;;;;5044531;28;20461;-81
2023/08/03 09:34:38;;;;;;;0.63;0.50;;;17.40;99.90;;;;;;5045853;28;20475;-82
2023/08/03 09:37:07;;;;;;;0.50;0.47;;;17.40;99.90;;;;;;5042688;28;21005;-81
2023/08/03 09:39:36;;;;;;;0.80;0.60;;;17.30;99.90;;;;;;5042234;28;20440;-83
2023/08/03 09:42:04;;;;;;;0.50;0.40;;;17.30;99.90;;;;;;5065579;22;20460;-79
2023/08/03 09:44:33;;;;;;;0.70;0.50;;;17.40;99.90;;;;;;5036198;28;20448;-79
2023/08/03 09:47:01;;;;;;;0.50;0.40;;;17.40;99.90;;;;;;5053269;28;20476;-79
2023/08/03 09:49:27;;;;;;;0.70;0.70;;;17.30;99.90;;;;;;5045916;28;20985;-78
2023/08/03 09:51:57;;;;;;;0.50;0.40;;;17.20;99.90;;;;;;5045404;28;20450;-79
2023/08/03 09:54:35;;;;;;;0.50;0.40;;;17.10;99.90;;;;;;5049529;28;20494;-79
2023/08/03 09:57:08;;;;;;;0.83;0.77;;;17.10;99.90;;;;;;5048629;28;20435;-79
2023/08/03 09:59:37;;;;;;;0.50;0.40;;;17.10;99.90;;;;;;5049695;28;20442;-79
2023/08/03 10:02:10;;;;;;;0.60;0.50;;;17.20;99.90;;;;;;5048203;28;20836;-79
2023/08/03 10:04:42;;;;;;;1.37;1.37;;;17.20;99.90;;;;;;5045545;28;20441;-81
2023/08/03 10:07:12;;;;;;;0.50;0.50;;;17.20;99.90;;;;;;5051755;28;20531;-81
2023/08/03 10:09:44;;;;;;;0.60;0.60;;;17.20;99.90;;;;;;5049676;28;20480;-79
2023/08/03 10:12:17;;;;;;;1.37;0.60;;;17.30;99.90;;;;;;5051990;28;20461;-81
2023/08/03 10:14:46;;;;;;;3.07;1.50;;;17.30;99.90;;;;;;5054767;28;20442;-82
2023/08/03 10:17:13;;;;;;;0.50;0.40;;;17.20;99.90;;;;;;5049945;28;20522;-79
2023/08/03 10:19:40;;;;;;;0.60;0.60;;;17.20;99.90;;;;;;5046382;28;20447;-79
2023/08/03 10:22:08;;;;;;;1.00;0.97;;;17.20;99.90;;;;;;5044705;28;20470;-79
2023/08/03 10:24:35;;;;;;;0.60;0.50;;;17.20;99.90;;;;;;5041155;28;20570;-79
2023/08/03 10:27:18;;;;;;;0.50;0.40;;;17.20;99.90;;;;;;5047861;28;20439;-79
2023/08/03 10:29:56;;;;;;;0.60;0.50;;;17.30;99.90;;;;;;5048690;28;20472;-81
2023/08/03 10:32:24;;;;;;;0.50;0.40;;;17.40;99.90;;;;;;5062307;28;20460;-81
2023/08/03 10:34:52;;;;;;;0.73;0.53;;;17.30;99.90;;;;;;5055284;28;20535;-79
2023/08/03 10:37:19;;;;;;;1.07;0.80;;;17.40;99.90;;;;;;5050732;28;20448;-82
2023/08/03 10:39:53;;;;;;;0.50;0.33;;;17.50;99.90;;;;;;5050732;28;20524;-81
2023/08/03 10:42:29;;;;;;;0.50;0.40;;;17.60;99.90;;;;;;5053715;28;20492;-81
2023/08/03 10:45:27;;;;;;;0.60;0.40;;;17.80;99.90;;;;;;5054597;28;20436;-81
2023/08/03 10:47:55;;;;;;;1.90;1.13;;;17.90;99.90;;;;;;5047410;28;20436;-78
2023/08/03 10:50:57;;;;;;;1.80;0.80;;;17.80;99.90;;;;;;5053942;28;20505;-82
2023/08/03 10:53:25;;;;;;;0.50;0.40;;;17.80;99.90;;;;;;5048782;28;21021;-81
2023/08/03 10:56:04;;;;;;;0.73;0.63;;;17.90;99.90;;;;;;5050612;28;20535;-78
2023/08/03 10:58:30;;;;;;;0.50;0.30;;;17.90;99.90;;;;;;5048295;28;20786;-82
2023/08/03 11:00:57;;;;;;;0.50;0.50;;;17.90;99.90;;;;;;5056890;28;20817;-82
2023/08/03 11:03:36;;;;;;;0.70;0.60;;;17.80;99.90;;;;;;5051842;28;20463;-81
2023/08/03 11:06:04;;;;;;;0.50;0.40;;;17.60;99.90;;;;;;5050087;28;21025;-81
2023/08/03 11:08:36;;;;;;;0.50;0.40;;;17.50;99.90;;;;;;5055921;28;20459;-82
2023/08/03 11:11:02;;;;;;;0.50;0.40;;;17.40;99.90;;;;;;5057956;28;20479;-81
2023/08/03 11:13:29;;;;;;;0.50;0.40;;;17.50;99.90;;;;;;5053118;28;20460;-81
2023/08/03 11:15:56;;;;;;;0.70;0.70;;;17.60;99.90;;;;;;5050587;28;20504;-80
2023/08/03 11:18:23;;;;;;;0.50;0.40;;;17.70;99.90;;;;;;5052442;28;20437;-79
2023/08/03 11:20:51;;;;;;;0.50;0.40;;;18.00;99.90;;;;;;5052481;28;20432;-79
2023/08/03 11:23:18;;;;;;;0.50;0.40;;;18.10;99.90;;;;;;5050112;28;20455;-80
2023/08/03 11:25:46;;;;;;;1.10;1.10;;;18.20;99.90;;;;;;5054028;28;20440;-80
2023/08/03 11:28:18;;;;;;;0.70;0.50;;;18.30;99.90;;;;;;5050774;28;20802;-79
2023/08/03 11:30:45;;;;;;;1.37;0.73;;;18.30;99.90;;;;;;5048582;28;20528;-79
2023/08/03 11:33:14;;;;;;;0.50;0.40;;;18.50;99.90;;;;;;5040725;28;20472;-81
2023/08/03 11:35:41;;;;;;;0.50;0.33;;;18.70;99.90;;;;;;5057637;28;20444;-81
2023/08/03 11:38:08;;;;;;;1.33;0.80;;;18.90;99.90;;;;;;5054418;28;20447;-79
2023/08/03 11:40:36;;;;;;;0.87;0.87;;;19.10;99.90;;;;;;5047644;28;20437;-79
2023/08/03 11:43:05;;;;;;;0.50;0.40;;;19.20;99.90;;;;;;5047679;28;20483;-79
2023/08/03 11:45:35;;;;;;;0.50;0.40;;;19.20;99.90;;;;;;5039699;28;20448;-78
2023/08/03 11:48:02;;;;;;;0.57;0.57;;;19.30;99.90;;;;;;5047349;28;20953;-79
2023/08/03 11:50:29;;;;;;;0.50;0.40;;;19.20;99.90;;;;;;5049862;28;20570;-79
2023/08/03 11:52:59;;;;;;;0.50;0.30;;;19.20;99.90;;;;;;5050564;28;20547;-79
2023/08/03 11:55:30;;;;;;;0.50;0.50;;;19.20;99.90;;;;;;5047152;28;20443;-79
2023/08/03 11:58:09;;;;;;;5.77;1.57;;;19.30;99.90;;;;;;5046483;28;20440;-79
2023/08/03 12:00:38;;;;;;;1.00;0.60;;;19.40;99.90;;;;;;5039442;28;20926;-79
2023/08/03 12:03:05;;;;;;;0.50;0.40;;;19.60;99.90;;;;;;5047909;28;20522;-78
2023/08/03 12:05:45;;;;;;;1.23;1.23;;;19.70;99.90;;;;;;5055244;28;20439;-80
2023/08/03 12:08:12;;;;;;;0.60;0.50;;;19.80;99.90;;;;;;5047465;28;20446;-79
2023/08/03 12:10:39;;;;;;;0.90;0.90;;;19.90;99.90;;;;;;5050007;28;20564;-79
2023/08/03 12:13:05;;;;;;;0.70;0.43;;;20.20;99.90;;;;;;5049211;28;21079;-78
2023/08/03 12:15:32;;;;;;;0.70;0.50;;;20.80;99.90;;;;;;5045310;28;20448;-78
2023/08/03 12:18:00;;;;;;;6.73;1.10;;;21.30;99.90;;;;;;5044985;28;20449;-79
2023/08/03 12:20:27;;;;;;;1.67;0.90;;;21.20;99.90;;;;;;5045585;28;20444;-79
2023/08/03 12:22:54;;;;;;;0.50;0.40;;;21.50;99.90;;;;;;5049256;28;20467;-79
2023/08/03 12:25:21;;;;;;;0.50;0.40;;;21.60;99.90;;;;;;5047784;28;20454;-79
2023/08/03 12:27:47;;;;;;;0.50;0.40;;;21.70;99.90;;;;;;5046158;28;20533;-78
2023/08/03 12:30:14;;;;;;;0.50;0.40;;;21.50;99.90;;;;;;5045626;28;20488;-79
2023/08/03 12:32:41;;;;;;;0.50;0.40;;;21.30;99.90;;;;;;5051129;28;20462;-81
2023/08/03 12:35:10;;;;;;;0.50;0.30;;;21.00;99.90;;;;;;5059854;28;20444;-81
2023/08/03 12:37:37;;;;;;;0.50;0.40;;;20.80;99.90;;;;;;5042936;28;20455;-80
2023/08/03 12:40:04;;;;;;;0.60;0.57;;;20.60;99.90;;;;;;5050298;28;20453;-80
2023/08/03 12:42:31;;;;;;;0.50;0.40;;;20.40;99.90;;;;;;5054226;28;20472;-80
2023/08/03 12:44:58;;;;;;;0.80;0.80;;;20.30;99.90;;;;;;5045219;28;20455;-79
2023/08/03 12:47:25;;;;;;;0.50;0.30;;;19.90;99.90;;;;;;5048246;28;20447;-78
2023/08/03 12:49:53;;;;;;;0.50;0.30;;;19.90;99.90;;;;;;5049487;28;20454;-78
2023/08/03 12:52:22;;;;;;;0.73;0.73;;;19.80;99.90;;;;;;5049307;28;20480;-78